createdAt,value
2018-07-21T00:00:37.826Z,24.06
2018-07-21T00:01:37.845Z,24.02
2018-07-21T00:02:37.904Z,23.87
2018-07-21T00:03:37.877Z,23.93
2018-07-21T00:04:38.014Z,23.79
2018-07-21T00:05:37.974Z,23.83
2018-07-21T00:06:37.926Z,23.85
2018-07-21T00:07:37.949Z,23.88
2018-07-21T00:08:38.015Z,23.95
2018-07-21T00:09:37.990Z,23.88
2018-07-21T00:10:38.016Z,23.76
2018-07-21T00:11:38.030Z,23.73
2018-07-21T00:12:38.029Z,23.58
2018-07-21T00:13:38.101Z,23.57
2018-07-21T00:14:38.065Z,23.58
2018-07-21T00:15:38.079Z,23.53
2018-07-21T00:16:38.097Z,23.54
2018-07-21T00:17:38.117Z,23.60
2018-07-21T00:18:38.134Z,23.53
2018-07-21T00:19:38.153Z,23.65
2018-07-21T00:20:38.168Z,23.55
2018-07-21T00:21:38.187Z,23.51
2018-07-21T00:22:38.203Z,23.60
2018-07-21T00:23:38.217Z,23.53
2018-07-21T00:24:38.245Z,23.60
2018-07-21T00:25:38.253Z,23.50
2018-07-21T00:26:38.268Z,23.53
2018-07-21T00:27:38.288Z,23.51
2018-07-21T00:28:38.305Z,23.63
2018-07-21T00:29:38.336Z,23.68
2018-07-21T00:30:38.387Z,23.70
2018-07-21T00:31:38.430Z,23.54
2018-07-21T00:32:38.383Z,23.50
2018-07-21T00:33:38.390Z,23.50
2018-07-21T00:34:38.406Z,23.55
2018-07-21T00:35:38.483Z,23.43
2018-07-21T00:36:38.440Z,23.38
2018-07-21T00:37:38.467Z,23.53
2018-07-21T00:38:38.474Z,23.42
2018-07-21T00:39:38.506Z,23.31
2018-07-21T00:40:38.529Z,23.32
2018-07-21T00:41:38.529Z,23.38
2018-07-21T00:42:38.542Z,23.38
2018-07-21T00:43:38.561Z,23.40
2018-07-21T00:44:38.577Z,23.36
2018-07-21T00:45:38.594Z,23.35
2018-07-21T00:46:38.726Z,23.48
2018-07-21T00:47:38.626Z,23.48
2018-07-21T00:48:38.642Z,23.47
2018-07-21T00:49:38.675Z,23.42
2018-07-21T00:50:38.677Z,23.50
2018-07-21T00:51:38.694Z,23.48
2018-07-21T00:52:38.714Z,23.40
2018-07-21T00:53:38.743Z,23.47
2018-07-21T00:54:38.744Z,23.38
2018-07-21T00:55:38.761Z,23.40
2018-07-21T00:56:38.779Z,23.31
2018-07-21T00:57:38.797Z,23.28
2018-07-21T00:58:38.812Z,23.32
2018-07-21T00:59:38.827Z,23.28
2018-07-21T01:00:38.849Z,23.22
2018-07-21T01:01:38.871Z,23.33
2018-07-21T01:02:38.889Z,23.31
2018-07-21T01:03:38.905Z,23.40
2018-07-21T01:04:39.089Z,23.28
2018-07-21T01:05:38.932Z,23.23
2018-07-21T01:06:39.001Z,23.25
2018-07-21T01:07:38.968Z,23.25
2018-07-21T01:08:38.984Z,23.20
2018-07-21T01:09:39.003Z,23.20
2018-07-21T01:10:39.023Z,23.19
2018-07-21T01:11:39.041Z,23.13
2018-07-21T01:12:39.087Z,23.13
2018-07-21T01:13:39.081Z,23.04
2018-07-21T01:14:39.092Z,23.02
2018-07-21T01:15:39.114Z,23.04
2018-07-21T01:16:39.131Z,23.07
2018-07-21T01:17:39.145Z,22.98
2018-07-21T01:18:39.163Z,23.00
2018-07-21T01:19:39.365Z,23.02
2018-07-21T01:20:39.215Z,22.98
2018-07-21T01:21:39.219Z,22.97
2018-07-21T01:22:39.237Z,23.00
2018-07-21T01:23:39.258Z,22.91
2018-07-21T01:24:39.269Z,22.77
2018-07-21T01:25:39.293Z,22.90
2018-07-21T01:26:39.307Z,22.85
2018-07-21T01:27:39.324Z,22.88
2018-07-21T01:28:39.341Z,22.90
2018-07-21T01:29:39.360Z,22.90
2018-07-21T01:30:39.380Z,22.90
2018-07-21T01:31:39.397Z,22.86
2018-07-21T01:32:39.417Z,22.82
2018-07-21T01:33:39.437Z,22.80
2018-07-21T01:34:39.453Z,22.77
2018-07-21T01:35:39.469Z,22.83
2018-07-21T01:36:39.491Z,22.68
2018-07-21T01:37:39.511Z,22.76
2018-07-21T01:38:39.523Z,22.68
2018-07-21T01:39:39.544Z,22.70
2018-07-21T01:40:39.590Z,22.73
2018-07-21T01:41:39.579Z,22.77
2018-07-21T01:42:39.597Z,22.79
2018-07-21T01:43:39.614Z,22.75
2018-07-21T01:44:39.669Z,22.72
2018-07-21T01:45:39.653Z,22.64
2018-07-21T01:46:39.733Z,22.57
2018-07-21T01:47:39.718Z,22.55
2018-07-21T01:48:39.703Z,22.47
2018-07-21T01:49:39.721Z,22.64
2018-07-21T01:50:39.742Z,22.49
2018-07-21T01:51:39.759Z,22.51
2018-07-21T01:52:39.778Z,22.54
2018-07-21T01:53:39.796Z,22.52
2018-07-21T01:54:39.927Z,22.62
2018-07-21T01:55:39.834Z,22.58
2018-07-21T01:56:39.848Z,22.60
2018-07-21T01:57:39.866Z,22.67
2018-07-21T01:58:39.885Z,22.73
2018-07-21T01:59:39.904Z,22.76
2018-07-21T02:00:39.923Z,22.76
2018-07-21T02:01:39.941Z,22.77
2018-07-21T02:02:39.960Z,22.85
2018-07-21T02:03:39.977Z,22.83
2018-07-21T02:04:40.033Z,22.83
2018-07-21T02:05:40.011Z,22.94
2018-07-21T02:06:40.030Z,22.85
2018-07-21T02:07:40.075Z,22.82
2018-07-21T02:08:40.065Z,22.83
2018-07-21T02:09:40.083Z,22.80
2018-07-21T02:10:40.118Z,22.76
2018-07-21T02:11:40.120Z,22.77
2018-07-21T02:12:40.164Z,22.62
2018-07-21T02:13:40.174Z,22.58
2018-07-21T02:14:40.184Z,22.62
2018-07-21T02:15:40.208Z,22.72
2018-07-21T02:16:40.219Z,22.70
2018-07-21T02:17:40.227Z,22.68
2018-07-21T02:18:40.244Z,22.73
2018-07-21T02:19:40.264Z,22.68
2018-07-21T02:20:40.281Z,22.64
2018-07-21T02:21:40.328Z,22.70
2018-07-21T02:22:40.347Z,22.73
2018-07-21T02:26:40.404Z,22.76
2018-07-21T02:27:40.408Z,22.79
2018-07-21T02:28:40.424Z,22.72
2018-07-21T02:34:07.394Z,22.52
2018-07-21T02:35:07.376Z,22.51
2018-07-21T02:42:51.320Z,22.52
2018-07-21T02:43:51.335Z,22.55
2018-07-21T02:44:51.357Z,22.54
2018-07-21T02:45:51.382Z,22.55
2018-07-21T02:46:51.389Z,22.49
2018-07-21T02:47:51.406Z,22.54
2018-07-21T02:48:51.431Z,22.43
2018-07-21T02:49:51.442Z,22.37
2018-07-21T02:51:51.478Z,22.43
2018-07-21T02:52:51.494Z,22.39
2018-07-21T02:53:51.512Z,22.42
2018-07-21T02:54:51.533Z,22.37
2018-07-21T02:55:51.553Z,22.30
2018-07-21T02:56:51.593Z,22.42
2018-07-21T02:57:51.626Z,22.33
2018-07-21T02:58:51.604Z,22.36
2018-07-21T02:59:51.622Z,22.39
2018-07-21T03:00:51.658Z,22.35
2018-07-21T03:01:51.657Z,22.36
2018-07-21T03:02:51.703Z,22.30
2018-07-21T03:03:51.690Z,22.33
2018-07-21T03:04:51.709Z,22.28
2018-07-21T03:05:51.723Z,22.20
2018-07-21T03:06:51.745Z,22.25
2018-07-21T03:07:51.760Z,22.25
2018-07-21T03:08:51.784Z,22.18
2018-07-21T03:09:51.824Z,22.10
2018-07-21T03:10:54.438Z,22.06
2018-07-21T03:12:39.400Z,22.09
2018-07-21T03:13:39.417Z,22.18
2018-07-21T03:14:39.437Z,22.10
2018-07-21T03:15:39.473Z,22.15
2018-07-21T03:16:39.469Z,22.05
2018-07-21T03:17:39.486Z,22.05
2018-07-21T03:18:39.503Z,22.15
2018-07-21T03:19:39.538Z,22.14
2018-07-21T03:20:39.539Z,22.12
2018-07-21T03:21:39.551Z,22.12
2018-07-21T03:22:39.570Z,22.14
2018-07-21T03:23:39.587Z,22.09
2018-07-21T03:24:39.607Z,22.07
2018-07-21T03:25:39.622Z,22.05
2018-07-21T03:26:39.641Z,22.09
2018-07-21T03:27:39.654Z,21.96
2018-07-21T03:28:39.674Z,22.05
2018-07-21T03:29:39.688Z,22.02
2018-07-21T03:30:39.721Z,22.00
2018-07-21T03:31:39.722Z,22.02
2018-07-21T03:32:39.742Z,22.02
2018-07-21T03:33:39.754Z,22.06
2018-07-21T03:34:39.776Z,22.07
2018-07-21T03:35:39.814Z,22.06
2018-07-21T03:36:39.845Z,22.02
2018-07-21T03:37:39.886Z,22.06
2018-07-21T03:38:39.858Z,22.00
2018-07-21T03:39:39.858Z,22.07
2018-07-21T03:40:39.873Z,22.00
2018-07-21T03:41:39.899Z,22.03
2018-07-21T03:42:40.006Z,21.94
2018-07-21T03:43:39.936Z,21.86
2018-07-21T03:44:39.942Z,21.88
2018-07-21T03:45:39.957Z,21.86
2018-07-21T03:46:39.972Z,21.77
2018-07-21T03:47:39.990Z,21.79
2018-07-21T03:48:40.008Z,21.83
2018-07-21T03:49:40.022Z,21.86
2018-07-21T03:50:40.040Z,21.83
2018-07-21T03:51:40.063Z,21.86
2018-07-21T03:52:40.081Z,21.80
2018-07-21T03:53:40.088Z,21.90
2018-07-21T03:54:40.108Z,21.86
2018-07-21T03:55:40.164Z,21.77
2018-07-21T03:56:40.144Z,21.84
2018-07-21T03:57:40.178Z,21.84
2018-07-21T03:58:40.182Z,21.74
2018-07-21T03:59:40.190Z,21.83
2018-07-21T04:00:40.322Z,21.83
2018-07-21T04:01:40.225Z,21.84
2018-07-21T04:02:40.236Z,21.82
2018-07-21T04:03:40.254Z,21.88
2018-07-21T04:04:40.273Z,21.98
2018-07-21T04:05:40.288Z,21.94
2018-07-21T04:06:40.304Z,21.98
2018-07-21T04:07:40.327Z,21.99
2018-07-21T04:08:40.335Z,21.90
2018-07-21T04:09:40.354Z,21.99
2018-07-21T04:10:40.380Z,21.83
2018-07-21T04:11:40.388Z,21.88
2018-07-21T04:12:40.405Z,21.94
2018-07-21T04:13:40.421Z,21.94
2018-07-21T04:14:40.437Z,21.90
2018-07-21T04:15:40.451Z,21.82
2018-07-21T04:16:40.501Z,21.82
2018-07-21T04:17:40.489Z,21.72
2018-07-21T04:18:40.502Z,21.79
2018-07-21T04:19:40.520Z,21.82
2018-07-21T04:20:40.544Z,21.75
2018-07-21T04:21:40.574Z,21.77
2018-07-21T04:22:40.576Z,21.72
2018-07-21T04:23:40.600Z,21.71
2018-07-21T04:24:40.615Z,21.71
2018-07-21T04:25:40.615Z,21.75
2018-07-21T04:26:40.633Z,21.75
2018-07-21T04:27:40.658Z,21.72
2018-07-21T04:28:40.671Z,21.79
2018-07-21T04:30:40.750Z,21.91
2018-07-21T04:31:40.724Z,21.86
2018-07-21T04:32:40.737Z,21.86
2018-07-21T04:33:40.759Z,21.83
2018-07-21T04:34:40.766Z,21.82
2018-07-21T04:35:40.782Z,21.77
2018-07-21T04:36:41.158Z,21.82
2018-07-21T04:37:40.816Z,21.75
2018-07-21T04:38:40.831Z,21.74
2018-07-21T04:39:40.866Z,21.74
2018-07-21T04:40:40.863Z,21.79
2018-07-21T04:41:40.884Z,21.74
2018-07-21T04:42:40.912Z,21.80
2018-07-21T04:43:40.927Z,21.72
2018-07-21T04:44:40.930Z,21.80
2018-07-21T04:45:41.056Z,21.82
2018-07-21T04:46:42.362Z,21.72
2018-07-21T04:47:41.170Z,21.74
2018-07-21T04:48:41.046Z,21.71
2018-07-21T04:49:41.289Z,21.79
2018-07-21T04:50:41.107Z,21.69
2018-07-21T04:51:41.045Z,21.75
2018-07-21T04:52:41.065Z,21.71
2018-07-21T04:53:41.092Z,21.75
2018-07-21T04:54:41.098Z,21.72
2018-07-21T04:55:41.111Z,21.68
2018-07-21T04:56:41.135Z,21.75
2018-07-21T04:57:41.144Z,21.75
2018-07-21T04:58:41.159Z,21.80
2018-07-21T04:59:41.188Z,21.72
2018-07-21T05:00:41.250Z,21.68
2018-07-21T05:01:41.217Z,21.71
2018-07-21T05:02:41.226Z,21.77
2018-07-21T05:03:41.244Z,21.82
2018-07-21T05:04:41.264Z,21.75
2018-07-21T05:05:41.280Z,21.74
2018-07-21T05:06:41.297Z,21.77
2018-07-21T05:07:41.311Z,21.75
2018-07-21T05:08:41.327Z,21.72
2018-07-21T05:09:41.646Z,21.74
2018-07-21T05:10:41.366Z,21.74
2018-07-21T05:11:41.404Z,21.86
2018-07-21T05:12:41.402Z,21.80
2018-07-21T05:13:41.433Z,21.83
2018-07-21T05:14:41.427Z,21.83
2018-07-21T05:15:41.451Z,21.98
2018-07-21T05:16:41.460Z,21.96
2018-07-21T05:17:41.473Z,21.94
2018-07-21T05:18:41.492Z,22.00
2018-07-21T05:19:41.507Z,21.99
2018-07-21T05:20:41.574Z,22.02
2018-07-21T05:21:42.199Z,21.99
2018-07-21T05:22:41.560Z,21.96
2018-07-21T05:23:41.617Z,22.03
2018-07-21T05:24:41.591Z,22.03
2018-07-21T05:25:41.608Z,22.07
2018-07-21T05:26:41.623Z,22.03
2018-07-21T05:27:41.640Z,22.05
2018-07-21T05:28:41.657Z,22.06
2018-07-21T05:29:41.672Z,22.07
2018-07-21T05:30:41.689Z,22.05
2018-07-21T05:31:41.715Z,22.02
2018-07-21T05:32:41.753Z,22.03
2018-07-21T05:33:41.776Z,22.05
2018-07-21T05:34:41.757Z,22.10
2018-07-21T05:35:41.777Z,22.07
2018-07-21T05:36:41.789Z,22.20
2018-07-21T05:37:41.807Z,22.22
2018-07-21T05:38:41.834Z,22.33
2018-07-21T05:39:41.841Z,22.31
2018-07-21T05:40:41.880Z,22.37
2018-07-21T05:41:41.886Z,22.39
2018-07-21T05:42:41.934Z,22.33
2018-07-21T05:43:41.907Z,22.33
2018-07-21T05:44:41.938Z,22.37
2018-07-21T05:45:42.020Z,22.39
2018-07-21T05:46:41.961Z,22.37
2018-07-21T05:47:41.972Z,22.43
2018-07-21T05:48:42.002Z,22.39
2018-07-21T05:49:42.014Z,22.39
2018-07-21T05:50:42.036Z,22.37
2018-07-21T05:51:42.051Z,22.39
2018-07-21T05:52:42.137Z,22.36
2018-07-21T05:53:42.080Z,22.40
2018-07-21T05:54:42.121Z,22.43
2018-07-21T05:55:42.108Z,22.46
2018-07-21T05:56:42.136Z,22.45
2018-07-21T05:57:42.144Z,22.49
2018-07-21T05:58:42.154Z,22.54
2018-07-21T05:59:42.173Z,22.57
2018-07-21T06:00:42.198Z,22.39
2018-07-21T06:01:42.227Z,22.55
2018-07-21T06:02:42.286Z,22.54
2018-07-21T06:03:42.257Z,22.40
2018-07-21T06:04:42.263Z,22.36
2018-07-21T06:05:42.274Z,22.54
2018-07-21T06:06:42.291Z,22.39
2018-07-21T06:07:42.322Z,22.51
2018-07-21T06:08:42.572Z,22.47
2018-07-21T06:09:42.402Z,22.57
2018-07-21T06:10:42.389Z,22.49
2018-07-21T06:11:42.365Z,22.54
2018-07-21T06:12:42.382Z,22.51
2018-07-21T06:13:42.397Z,22.45
2018-07-21T06:14:42.415Z,22.40
2018-07-21T06:15:42.432Z,22.52
2018-07-21T06:16:42.457Z,22.39
2018-07-21T06:17:42.505Z,22.43
2018-07-21T06:18:42.588Z,22.39
2018-07-21T06:19:42.832Z,22.35
2018-07-21T06:20:42.533Z,22.28
2018-07-21T06:21:42.536Z,22.40
2018-07-21T06:22:42.551Z,22.39
2018-07-21T06:23:42.586Z,22.37
2018-07-21T06:24:42.605Z,22.39
2018-07-21T06:26:42.656Z,22.36
2018-07-21T06:27:42.659Z,22.40
2018-07-21T06:28:42.669Z,22.45
2018-07-21T06:29:42.681Z,22.54
2018-07-21T06:30:42.700Z,22.42
2018-07-21T06:31:42.719Z,22.43
2018-07-21T06:32:42.775Z,22.42
2018-07-21T06:33:42.732Z,22.39
2018-07-21T06:34:42.749Z,22.36
2018-07-21T06:35:42.766Z,22.43
2018-07-21T06:36:42.790Z,22.42
2018-07-21T06:37:42.806Z,22.42
2018-07-21T06:38:42.920Z,22.42
2018-07-21T06:39:42.883Z,22.42
2018-07-21T06:40:43.096Z,22.35
2018-07-21T06:41:42.918Z,22.43
2018-07-21T06:42:42.884Z,22.40
2018-07-21T06:43:42.973Z,22.39
2018-07-21T06:44:42.920Z,22.51
2018-07-21T06:45:42.948Z,22.36
2018-07-21T06:46:42.966Z,22.37
2018-07-21T06:47:43.002Z,22.40
2018-07-21T06:48:43.360Z,22.40
2018-07-21T06:49:43.093Z,22.33
2018-07-21T06:50:43.127Z,22.31
2018-07-21T06:51:43.089Z,22.36
2018-07-21T06:52:43.481Z,22.40
2018-07-21T06:53:43.072Z,22.54
2018-07-21T06:54:43.081Z,22.42
2018-07-21T06:55:43.098Z,22.39
2018-07-21T06:56:43.168Z,22.42
2018-07-21T06:57:43.132Z,22.54
2018-07-21T06:58:43.680Z,22.58
2018-07-21T06:59:43.181Z,22.70
2018-07-21T07:00:43.183Z,22.64
2018-07-21T07:01:43.333Z,22.62
2018-07-21T07:02:43.238Z,22.65
2018-07-21T07:03:43.264Z,22.64
2018-07-21T07:04:43.290Z,22.61
2018-07-21T07:05:43.288Z,22.75
2018-07-21T07:06:43.319Z,22.73
2018-07-21T07:07:43.303Z,22.70
2018-07-21T07:08:43.343Z,22.67
2018-07-21T07:09:43.329Z,22.65
2018-07-21T07:10:43.348Z,22.62
2018-07-21T07:11:43.365Z,22.60
2018-07-21T07:12:43.381Z,22.65
2018-07-21T07:13:43.430Z,22.62
2018-07-21T07:14:43.415Z,22.67
2018-07-21T07:15:43.444Z,22.70
2018-07-21T07:16:43.450Z,22.64
2018-07-21T07:17:43.637Z,22.64
2018-07-21T07:18:43.486Z,22.65
2018-07-21T07:19:43.502Z,22.68
2018-07-21T07:20:43.519Z,22.67
2018-07-21T07:21:43.600Z,22.58
2018-07-21T07:22:43.671Z,22.62
2018-07-21T07:23:43.566Z,22.54
2018-07-21T07:24:43.581Z,22.68
2018-07-21T07:25:43.602Z,22.60
2018-07-21T07:26:43.613Z,22.65
2018-07-21T07:27:43.629Z,22.67
2018-07-21T07:28:43.652Z,22.79
2018-07-21T07:29:43.667Z,22.80
2018-07-21T07:30:43.681Z,22.88
2018-07-21T07:31:43.716Z,22.95
2018-07-21T07:32:43.715Z,22.95
2018-07-21T07:33:43.731Z,22.91
2018-07-21T07:34:43.747Z,22.88
2018-07-21T07:35:43.764Z,22.86
2018-07-21T07:36:43.782Z,22.90
2018-07-21T07:37:43.798Z,22.83
2018-07-21T07:38:43.819Z,22.90
2018-07-21T07:39:43.834Z,22.82
2018-07-21T07:40:43.851Z,22.90
2018-07-21T07:41:43.867Z,22.86
2018-07-21T07:42:43.880Z,22.85
2018-07-21T07:43:43.898Z,22.83
2018-07-21T07:44:43.915Z,22.82
2018-07-21T07:45:43.931Z,22.97
2018-07-21T07:46:43.952Z,22.95
2018-07-21T07:47:43.966Z,22.88
2018-07-21T07:48:43.984Z,22.79
2018-07-21T07:49:43.997Z,22.85
2018-07-21T07:50:44.015Z,22.79
2018-07-21T07:51:44.032Z,22.79
2018-07-21T07:52:44.049Z,22.90
2018-07-21T07:53:44.071Z,22.91
2018-07-21T07:54:44.083Z,22.86
2018-07-21T07:55:44.099Z,22.91
2018-07-21T07:56:44.139Z,22.91
2018-07-21T07:57:44.134Z,23.02
2018-07-21T07:58:44.170Z,23.04
2018-07-21T07:59:44.172Z,22.97
2018-07-21T08:00:44.183Z,23.00
2018-07-21T08:01:44.197Z,23.05
2018-07-21T08:02:44.214Z,23.02
2018-07-21T08:03:44.240Z,22.98
2018-07-21T08:04:44.253Z,23.00
2018-07-21T08:05:44.264Z,23.12
2018-07-21T08:06:44.287Z,23.16
2018-07-21T08:07:44.298Z,23.25
2018-07-21T08:08:44.316Z,23.22
2018-07-21T08:09:44.362Z,23.17
2018-07-21T08:10:44.448Z,23.32
2018-07-21T08:11:44.370Z,23.36
2018-07-21T08:12:44.555Z,23.39
2018-07-21T08:13:44.461Z,23.46
2018-07-21T08:14:44.537Z,23.38
2018-07-21T08:15:44.433Z,23.51
2018-07-21T08:16:44.472Z,23.60
2018-07-21T08:17:44.468Z,23.53
2018-07-21T08:18:44.489Z,23.65
2018-07-21T08:19:44.709Z,23.83
2018-07-21T08:20:44.526Z,23.85
2018-07-21T08:21:44.536Z,23.87
2018-07-21T08:22:44.553Z,23.91
2018-07-21T08:23:44.571Z,23.88
2018-07-21T08:24:44.593Z,23.85
2018-07-21T08:25:44.615Z,23.85
2018-07-21T08:26:44.622Z,23.68
2018-07-21T08:27:44.640Z,23.70
2018-07-21T08:28:44.656Z,23.85
2018-07-21T08:29:44.690Z,23.88
2018-07-21T08:30:44.693Z,23.98
2018-07-21T08:31:44.709Z,23.85
2018-07-21T08:32:44.727Z,23.84
2018-07-21T08:33:44.743Z,23.90
2018-07-21T08:34:44.815Z,23.87
2018-07-21T08:35:44.774Z,23.87
2018-07-21T08:36:44.795Z,24.02
2018-07-21T08:37:44.822Z,24.03
2018-07-21T08:38:44.877Z,23.98
2018-07-21T08:39:44.847Z,24.10
2018-07-21T08:40:44.865Z,24.08
2018-07-21T08:41:44.891Z,24.05
2018-07-21T08:42:44.921Z,23.98
2018-07-21T08:43:44.919Z,23.93
2018-07-21T08:44:44.934Z,24.00
2018-07-21T08:45:44.952Z,23.95
2018-07-21T08:46:44.970Z,23.98
2018-07-21T08:47:44.985Z,24.12
2018-07-21T08:48:45.003Z,24.28
2018-07-21T08:49:45.069Z,24.40
2018-07-21T08:50:45.043Z,24.46
2018-07-21T08:51:45.062Z,24.53
2018-07-21T08:52:45.074Z,24.45
2018-07-21T08:53:45.089Z,24.35
2018-07-21T08:55:45.181Z,24.45
2018-07-21T08:56:45.149Z,24.46
2018-07-21T08:57:45.161Z,24.40
2018-07-21T08:58:45.189Z,24.50
2018-07-21T08:59:45.198Z,24.47
2018-07-21T09:00:45.214Z,24.45
2018-07-21T09:01:45.235Z,24.53
2018-07-21T09:02:45.248Z,24.61
2018-07-21T09:03:45.274Z,24.68
2018-07-21T09:04:45.291Z,24.67
2018-07-21T09:05:45.389Z,24.73
2018-07-21T09:06:45.323Z,24.55
2018-07-21T09:07:45.337Z,24.46
2018-07-21T09:08:45.366Z,24.49
2018-07-21T09:09:45.373Z,24.50
2018-07-21T09:10:45.393Z,24.57
2018-07-21T09:11:45.426Z,24.61
2018-07-21T09:12:45.436Z,24.68
2018-07-21T09:13:45.453Z,24.67
2018-07-21T09:14:45.465Z,24.80
2018-07-21T09:15:45.532Z,24.85
2018-07-21T09:16:45.557Z,24.65
2018-07-21T09:17:45.536Z,24.71
2018-07-21T09:18:45.533Z,24.64
2018-07-21T09:19:45.551Z,24.67
2018-07-21T09:20:45.568Z,24.77
2018-07-21T09:21:45.586Z,24.78
2018-07-21T09:22:45.603Z,24.81
2018-07-21T09:23:45.623Z,24.84
2018-07-21T09:24:45.641Z,24.84
2018-07-21T09:25:45.656Z,24.99
2018-07-21T09:26:45.676Z,24.98
2018-07-21T09:27:45.722Z,25.05
2018-07-21T09:28:45.767Z,25.15
2018-07-21T09:29:45.728Z,25.17
2018-07-21T09:30:45.744Z,25.17
2018-07-21T09:31:45.772Z,25.35
2018-07-21T09:32:45.823Z,25.23
2018-07-21T09:33:45.811Z,25.18
2018-07-21T09:34:45.828Z,25.13
2018-07-21T09:35:45.836Z,25.21
2018-07-21T09:36:45.852Z,25.24
2018-07-21T09:37:45.870Z,25.14
2018-07-21T09:38:45.889Z,25.18
2018-07-21T09:39:45.907Z,25.15
2018-07-21T09:40:45.927Z,25.20
2018-07-21T09:41:46.068Z,25.13
2018-07-21T09:42:45.967Z,25.32
2018-07-21T09:43:45.980Z,25.14
2018-07-21T09:44:45.994Z,25.15
2018-07-21T09:45:46.018Z,25.21
2018-07-21T09:46:46.035Z,25.09
2018-07-21T09:47:46.072Z,24.95
2018-07-21T09:48:46.075Z,25.02
2018-07-21T09:49:46.088Z,25.06
2018-07-21T09:50:46.114Z,25.08
2018-07-21T09:51:46.123Z,25.14
2018-07-21T09:52:46.173Z,25.28
2018-07-21T09:53:46.164Z,25.27
2018-07-21T09:54:46.199Z,25.36
2018-07-21T09:55:46.284Z,25.43
2018-07-21T09:56:46.214Z,25.45
2018-07-21T09:57:46.231Z,25.47
2018-07-21T09:58:46.249Z,25.42
2018-07-21T09:59:46.267Z,25.28
2018-07-21T10:00:46.285Z,25.27
2018-07-21T10:01:46.353Z,25.28
2018-07-21T10:02:46.334Z,25.27
2018-07-21T10:03:46.341Z,25.43
2018-07-21T10:04:46.358Z,25.47
2018-07-21T10:05:46.373Z,25.50
2018-07-21T10:06:46.391Z,25.62
2018-07-21T10:07:46.410Z,25.57
2018-07-21T10:08:46.438Z,25.54
2018-07-21T10:09:46.478Z,25.58
2018-07-21T10:10:46.466Z,25.72
2018-07-21T10:11:46.507Z,25.60
2018-07-21T10:12:46.500Z,25.73
2018-07-21T10:13:46.515Z,25.73
2018-07-21T10:14:46.535Z,25.77
2018-07-21T10:15:46.555Z,25.85
2018-07-21T10:16:46.572Z,25.77
2018-07-21T10:17:46.589Z,25.79
2018-07-21T10:18:46.611Z,25.83
2018-07-21T10:19:46.628Z,25.94
2018-07-21T10:20:46.654Z,25.94
2018-07-21T10:21:46.713Z,25.94
2018-07-21T10:22:46.689Z,26.17
2018-07-21T10:23:46.700Z,26.28
2018-07-21T10:24:47.119Z,26.36
2018-07-21T10:25:46.733Z,26.51
2018-07-21T10:26:46.757Z,26.58
2018-07-21T10:27:46.776Z,26.57
2018-07-21T10:28:46.789Z,26.44
2018-07-21T10:29:46.810Z,26.40
2018-07-21T10:30:46.826Z,26.44
2018-07-21T10:31:46.847Z,26.39
2018-07-21T10:32:46.862Z,26.39
2018-07-21T10:33:46.884Z,26.47
2018-07-21T10:34:46.908Z,26.63
2018-07-21T10:35:46.927Z,26.66
2018-07-21T10:36:46.949Z,26.82
2018-07-21T10:37:46.956Z,26.85
2018-07-21T10:38:46.977Z,27.03
2018-07-21T10:39:46.991Z,27.12
2018-07-21T10:40:47.012Z,27.09
2018-07-21T10:41:47.033Z,27.25
2018-07-21T10:42:47.049Z,27.37
2018-07-21T10:43:47.102Z,27.29
2018-07-21T10:44:47.086Z,27.36
2018-07-21T10:45:47.147Z,27.44
2018-07-21T10:46:47.127Z,27.50
2018-07-21T10:47:47.145Z,27.46
2018-07-21T10:48:47.225Z,27.34
2018-07-21T10:49:47.192Z,27.28
2018-07-21T10:50:47.231Z,27.37
2018-07-21T10:51:47.220Z,27.40
2018-07-21T10:52:47.237Z,27.43
2018-07-21T10:53:47.265Z,27.37
2018-07-21T10:54:47.280Z,27.46
2018-07-21T10:55:47.295Z,27.49
2018-07-21T10:56:47.322Z,27.54
2018-07-21T10:57:47.331Z,27.46
2018-07-21T10:58:47.351Z,27.31
2018-07-21T10:59:47.370Z,27.09
2018-07-21T11:00:47.408Z,27.18
2018-07-21T11:01:47.409Z,27.36
2018-07-21T11:02:47.437Z,27.40
2018-07-21T11:03:47.471Z,27.47
2018-07-21T11:04:47.463Z,27.46
2018-07-21T11:05:47.483Z,27.43
2018-07-21T11:06:47.501Z,27.54
2018-07-21T11:07:47.521Z,27.51
2018-07-21T11:08:47.555Z,27.47
2018-07-21T11:09:47.575Z,27.57
2018-07-21T11:10:47.589Z,27.46
2018-07-21T11:11:47.602Z,27.47
2018-07-21T11:12:47.620Z,27.54
2018-07-21T11:13:47.649Z,27.59
2018-07-21T11:14:47.656Z,27.69
2018-07-21T11:15:47.679Z,27.70
2018-07-21T11:16:47.694Z,27.78
2018-07-21T11:17:47.716Z,27.85
2018-07-21T11:18:47.736Z,27.69
2018-07-21T11:19:48.055Z,27.81
2018-07-21T11:20:47.774Z,27.81
2018-07-21T11:21:47.797Z,27.84
2018-07-21T11:22:47.809Z,27.93
2018-07-21T11:23:48.296Z,28.07
2018-07-21T11:24:47.848Z,28.19
2018-07-21T11:25:47.868Z,28.25
2018-07-21T11:26:47.886Z,28.15
2018-07-21T11:27:47.907Z,28.06
2018-07-21T11:28:47.923Z,28.06
2018-07-21T11:29:47.941Z,28.19
2018-07-21T11:30:47.965Z,28.25
2018-07-21T11:31:47.989Z,28.27
2018-07-21T11:32:48.006Z,28.33
2018-07-21T11:33:48.021Z,28.49
2018-07-21T11:34:48.079Z,28.76
2018-07-21T11:35:48.184Z,28.43
2018-07-21T11:36:48.082Z,28.33
2018-07-21T11:37:48.102Z,28.37
2018-07-21T11:38:48.121Z,28.48
2018-07-21T11:39:48.139Z,28.40
2018-07-21T11:40:48.174Z,28.46
2018-07-21T11:41:48.177Z,28.55
2018-07-21T11:42:48.197Z,28.64
2018-07-21T11:43:48.222Z,28.71
2018-07-21T11:44:48.241Z,28.81
2018-07-21T11:45:48.258Z,28.81
2018-07-21T11:46:48.277Z,28.86
2018-07-21T11:47:48.293Z,28.92
2018-07-21T11:48:48.312Z,28.98
2018-07-21T11:49:48.333Z,28.92
2018-07-21T11:50:48.602Z,28.74
2018-07-21T11:51:48.368Z,28.49
2018-07-21T11:52:48.400Z,28.39
2018-07-21T11:53:48.431Z,28.36
2018-07-21T11:54:48.461Z,28.49
2018-07-21T11:55:48.451Z,28.51
2018-07-21T11:56:48.532Z,28.59
2018-07-21T11:57:48.488Z,28.81
2018-07-21T11:58:48.507Z,28.67
2018-07-21T11:59:48.527Z,28.56
2018-07-21T12:00:48.548Z,28.46
2018-07-21T12:01:48.612Z,28.37
2018-07-21T12:02:48.597Z,28.56
2018-07-21T12:03:48.605Z,28.74
2018-07-21T12:04:48.627Z,28.92
2018-07-21T12:05:48.652Z,29.16
2018-07-21T12:06:48.669Z,29.23
2018-07-21T12:07:48.706Z,29.02
2018-07-21T12:08:48.713Z,28.74
2018-07-21T12:09:48.760Z,28.74
2018-07-21T12:10:48.750Z,28.78
2018-07-21T12:11:48.783Z,28.64
2018-07-21T12:12:48.991Z,28.85
2018-07-21T12:13:48.828Z,28.98
2018-07-21T12:14:48.823Z,29.11
2018-07-21T12:15:48.845Z,29.26
2018-07-21T12:16:48.863Z,29.34
2018-07-21T12:17:48.882Z,29.41
2018-07-21T12:18:48.902Z,29.65
2018-07-21T12:19:48.925Z,29.64
2018-07-21T12:20:48.944Z,29.55
2018-07-21T12:21:48.962Z,29.57
2018-07-21T12:22:48.984Z,29.61
2018-07-21T12:23:49.034Z,29.82
2018-07-21T12:24:49.025Z,30.04
2018-07-21T12:25:49.059Z,30.10
2018-07-21T12:26:49.063Z,30.20
2018-07-21T12:27:49.081Z,30.27
2018-07-21T12:28:49.105Z,30.05
2018-07-21T12:29:49.127Z,30.02
2018-07-21T12:30:49.142Z,30.24
2018-07-21T12:31:49.163Z,30.39
2018-07-21T12:32:49.182Z,30.42
2018-07-21T12:33:49.201Z,30.42
2018-07-21T12:34:49.236Z,30.45
2018-07-21T12:35:49.244Z,30.64
2018-07-21T12:36:49.262Z,30.65
2018-07-21T12:37:49.278Z,30.65
2018-07-21T12:38:49.297Z,30.54
2018-07-21T12:39:49.319Z,30.43
2018-07-21T12:40:49.342Z,30.43
2018-07-21T12:41:49.358Z,30.39
2018-07-21T12:42:49.380Z,30.24
2018-07-21T12:43:49.405Z,30.47
2018-07-21T12:44:49.482Z,30.76
2018-07-21T12:45:49.441Z,30.65
2018-07-21T12:46:49.477Z,30.60
2018-07-21T12:47:49.493Z,30.31
2018-07-21T12:48:49.505Z,30.29
2018-07-21T12:49:49.539Z,30.39
2018-07-21T12:50:49.553Z,30.61
2018-07-21T12:51:49.567Z,30.67
2018-07-21T12:52:49.589Z,31.06
2018-07-21T12:53:49.608Z,31.17
2018-07-21T12:54:49.630Z,31.28
2018-07-21T12:55:49.658Z,31.36
2018-07-21T12:56:49.701Z,31.54
2018-07-21T12:57:49.704Z,31.53
2018-07-21T12:58:49.719Z,31.14
2018-07-21T12:59:49.743Z,31.35
2018-07-21T13:00:49.766Z,31.25
2018-07-21T13:01:49.788Z,30.98
2018-07-21T13:02:49.811Z,31.07
2018-07-21T13:03:49.839Z,31.16
2018-07-21T13:04:49.863Z,31.53
2018-07-21T13:05:49.881Z,31.81
2018-07-21T13:06:49.907Z,32.03
2018-07-21T13:07:49.932Z,32.01
2018-07-21T13:08:49.956Z,32.03
2018-07-21T13:09:50.048Z,32.14
2018-07-21T13:10:50.007Z,32.10
2018-07-21T13:11:50.028Z,32.04